sensor_id;sensor_type;location;lat;lon;timestamp;pressure;altitude;pressure_sealevel;temperature;humidity
23446;BME280;11895;48.738;9.320;2023-04-27T00:00:51;98855.31;;;11.21;100.00
23446;BME280;11895;48.738;9.320;2023-04-27T00:03:19;98856.88;;;11.07;100.00
23446;BME280;11895;48.738;9.320;2023-04-27T00:05:47;98859.59;;;11.25;100.00
23446;BME280;11895;48.738;9.320;2023-04-27T00:08:15;98861.75;;;11.18;100.00
23446;BME280;11895;48.738;9.320;2023-04-27T00:10:44;98854.00;;;11.11;100.00
23446;BME280;11895;48.738;9.320;2023-04-27T00:13:12;98855.03;;;10.89;100.00
23446;BME280;11895;48.738;9.320;2023-04-27T00:15:39;98857.31;;;11.17;100.00
23446;BME280;11895;48.738;9.320;2023-04-27T00:18:07;98859.91;;;11.19;100.00
23446;BME280;11895;48.738;9.320;2023-04-27T00:20:35;98850.22;;;11.15;100.00
23446;BME280;11895;48.738;9.320;2023-04-27T00:23:02;98852.56;;;11.03;100.00
23446;BME280;11895;48.738;9.320;2023-04-27T00:25:30;98850.34;;;11.12;100.00
23446;BME280;11895;48.738;9.320;2023-04-27T00:27:58;98848.91;;;11.04;100.00
23446;BME280;11895;48.738;9.320;2023-04-27T00:30:27;98845.69;;;11.15;100.00
23446;BME280;11895;48.738;9.320;2023-04-27T00:32:54;98836.53;;;11.19;100.00
23446;BME280;11895;48.738;9.320;2023-04-27T00:35:22;98841.56;;;11.08;100.00
23446;BME280;11895;48.738;9.320;2023-04-27T00:37:52;98843.97;;;11.14;100.00
23446;BME280;11895;48.738;9.320;2023-04-27T00:40:20;98842.22;;;11.13;100.00
23446;BME280;11895;48.738;9.320;2023-04-27T00:42:48;98838.22;;;11.22;100.00
23446;BME280;11895;48.738;9.320;2023-04-27T00:45:16;98841.03;;;11.19;100.00
23446;BME280;11895;48.738;9.320;2023-04-27T00:47:44;98834.88;;;10.98;100.00
23446;BME280;11895;48.738;9.320;2023-04-27T00:50:12;98834.34;;;10.71;100.00
23446;BME280;11895;48.738;9.320;2023-04-27T00:52:41;98832.22;;;10.77;100.00
23446;BME280;11895;48.738;9.320;2023-04-27T00:55:08;98838.22;;;10.84;100.00
23446;BME280;11895;48.738;9.320;2023-04-27T00:57:36;98827.66;;;10.98;100.00
23446;BME280;11895;48.738;9.320;2023-04-27T01:00:05;98835.88;;;10.95;100.00
23446;BME280;11895;48.738;9.320;2023-04-27T01:02:34;98827.66;;;10.98;100.00
23446;BME280;11895;48.738;9.320;2023-04-27T01:05:09;98833.41;;;10.91;100.00
23446;BME280;11895;48.738;9.320;2023-04-27T01:07:38;98827.28;;;10.87;100.00
23446;BME280;11895;48.738;9.320;2023-04-27T01:10:07;98828.22;;;10.86;100.00
23446;BME280;11895;48.738;9.320;2023-04-27T01:12:35;98831.44;;;10.94;100.00
23446;BME280;11895;48.738;9.320;2023-04-27T01:15:05;98834.94;;;10.96;100.00
23446;BME280;11895;48.738;9.320;2023-04-27T01:17:33;98836.84;;;10.94;100.00
23446;BME280;11895;48.738;9.320;2023-04-27T01:20:01;98833.06;;;10.98;100.00
23446;BME280;11895;48.738;9.320;2023-04-27T01:22:33;98840.47;;;10.93;100.00
23446;BME280;11895;48.738;9.320;2023-04-27T01:25:00;98828.84;;;10.93;100.00
23446;BME280;11895;48.738;9.320;2023-04-27T01:27:30;98835.22;;;10.90;100.00
23446;BME280;11895;48.738;9.320;2023-04-27T01:30:05;98843.88;;;10.78;100.00
23446;BME280;11895;48.738;9.320;2023-04-27T01:32:35;98844.56;;;10.83;100.00
23446;BME280;11895;48.738;9.320;2023-04-27T01:35:04;98838.94;;;10.69;100.00
23446;BME280;11895;48.738;9.320;2023-04-27T01:37:34;98837.47;;;10.80;100.00
23446;BME280;11895;48.738;9.320;2023-04-27T01:40:02;98840.75;;;10.87;100.00
23446;BME280;11895;48.738;9.320;2023-04-27T01:42:32;98836.81;;;10.75;100.00
23446;BME280;11895;48.738;9.320;2023-04-27T01:44:59;98833.88;;;10.42;100.00
23446;BME280;11895;48.738;9.320;2023-04-27T01:47:27;98839.47;;;10.38;100.00
23446;BME280;11895;48.738;9.320;2023-04-27T01:49:55;98840.28;;;10.40;100.00
23446;BME280;11895;48.738;9.320;2023-04-27T01:52:22;98835.91;;;10.37;100.00
23446;BME280;11895;48.738;9.320;2023-04-27T01:54:50;98831.97;;;10.25;100.00
23446;BME280;11895;48.738;9.320;2023-04-27T01:57:18;98829.50;;;10.40;100.00
23446;BME280;11895;48.738;9.320;2023-04-27T01:59:46;98841.94;;;10.42;100.00
23446;BME280;11895;48.738;9.320;2023-04-27T02:02:14;98846.94;;;10.11;100.00
23446;BME280;11895;48.738;9.320;2023-04-27T02:04:42;98852.44;;;10.08;100.00
23446;BME280;11895;48.738;9.320;2023-04-27T02:07:11;98848.97;;;10.26;100.00
23446;BME280;11895;48.738;9.320;2023-04-27T02:09:39;98840.81;;;10.27;100.00
23446;BME280;11895;48.738;9.320;2023-04-27T02:12:08;98847.59;;;10.16;100.00
23446;BME280;11895;48.738;9.320;2023-04-27T02:14:35;98842.34;;;10.13;100.00
23446;BME280;11895;48.738;9.320;2023-04-27T02:17:03;98850.72;;;10.27;100.00
23446;BME280;11895;48.738;9.320;2023-04-27T02:19:30;98854.44;;;10.23;100.00
23446;BME280;11895;48.738;9.320;2023-04-27T02:21:58;98854.38;;;10.26;100.00
23446;BME280;11895;48.738;9.320;2023-04-27T02:24:27;98855.81;;;10.33;100.00
23446;BME280;11895;48.738;9.320;2023-04-27T02:26:55;98856.09;;;10.27;100.00
23446;BME280;11895;48.738;9.320;2023-04-27T02:29:23;98857.97;;;10.25;100.00
23446;BME280;11895;48.738;9.320;2023-04-27T02:31:51;98856.28;;;10.22;100.00
23446;BME280;11895;48.738;9.320;2023-04-27T02:34:18;98861.63;;;10.24;100.00
23446;BME280;11895;48.738;9.320;2023-04-27T02:36:47;98870.44;;;10.27;100.00
23446;BME280;11895;48.738;9.320;2023-04-27T02:39:14;98867.66;;;10.09;100.00
23446;BME280;11895;48.738;9.320;2023-04-27T02:41:42;98866.41;;;9.95;100.00
23446;BME280;11895;48.738;9.320;2023-04-27T02:44:10;98863.59;;;9.98;100.00
23446;BME280;11895;48.738;9.320;2023-04-27T02:46:39;98870.22;;;9.91;100.00
23446;BME280;11895;48.738;9.320;2023-04-27T02:49:07;98867.84;;;9.84;100.00
23446;BME280;11895;48.738;9.320;2023-04-27T02:51:34;98869.59;;;9.85;100.00
23446;BME280;11895;48.738;9.320;2023-04-27T02:54:02;98872.19;;;9.86;100.00
23446;BME280;11895;48.738;9.320;2023-04-27T02:56:30;98872.06;;;9.89;100.00
23446;BME280;11895;48.738;9.320;2023-04-27T02:58:58;98881.28;;;9.84;100.00
23446;BME280;11895;48.738;9.320;2023-04-27T03:01:25;98888.06;;;9.72;100.00
23446;BME280;11895;48.738;9.320;2023-04-27T03:03:53;98881.31;;;9.62;100.00
23446;BME280;11895;48.738;9.320;2023-04-27T03:06:21;98887.78;;;9.58;100.00
23446;BME280;11895;48.738;9.320;2023-04-27T03:08:49;98881.28;;;9.84;100.00
23446;BME280;11895;48.738;9.320;2023-04-27T03:11:18;98883.84;;;9.87;100.00
23446;BME280;11895;48.738;9.320;2023-04-27T03:13:45;98876.94;;;10.01;100.00
23446;BME280;11895;48.738;9.320;2023-04-27T03:16:13;98881.78;;;10.14;100.00
23446;BME280;11895;48.738;9.320;2023-04-27T03:18:41;98885.00;;;10.22;100.00
23446;BME280;11895;48.738;9.320;2023-04-27T03:21:10;98882.81;;;10.32;100.00
23446;BME280;11895;48.738;9.320;2023-04-27T03:23:39;98878.84;;;10.40;100.00
23446;BME280;11895;48.738;9.320;2023-04-27T03:26:12;98879.94;;;10.36;100.00
23446;BME280;11895;48.738;9.320;2023-04-27T03:28:41;98883.03;;;10.27;100.00
23446;BME280;11895;48.738;9.320;2023-04-27T03:31:11;98880.72;;;10.38;100.00
23446;BME280;11895;48.738;9.320;2023-04-27T03:33:40;98884.38;;;10.37;100.00
23446;BME280;11895;48.738;9.320;2023-04-27T03:36:08;98883.41;;;10.38;100.00
23446;BME280;11895;48.738;9.320;2023-04-27T03:38:40;98875.22;;;10.41;100.00
23446;BME280;11895;48.738;9.320;2023-04-27T03:41:08;98869.94;;;10.38;100.00
23446;BME280;11895;48.738;9.320;2023-04-27T03:43:36;98874.88;;;10.28;100.00
23446;BME280;11895;48.738;9.320;2023-04-27T03:46:03;98874.88;;;10.28;100.00
23446;BME280;11895;48.738;9.320;2023-04-27T03:48:31;98877.81;;;10.02;100.00
23446;BME280;11895;48.738;9.320;2023-04-27T03:51:00;98872.16;;;10.08;100.00
23446;BME280;11895;48.738;9.320;2023-04-27T03:53:28;98869.00;;;10.19;100.00
23446;BME280;11895;48.738;9.320;2023-04-27T03:55:55;98878.69;;;10.02;100.00
23446;BME280;11895;48.738;9.320;2023-04-27T03:58:23;98880.16;;;10.10;100.00
23446;BME280;11895;48.738;9.320;2023-04-27T04:01:12;98883.03;;;10.05;100.00
23446;BME280;11895;48.738;9.320;2023-04-27T04:03:41;98883.44;;;9.96;100.00
23446;BME280;11895;48.738;9.320;2023-04-27T04:06:09;98882.44;;;9.98;100.00
23446;BME280;11895;48.738;9.320;2023-04-27T04:08:38;98883.69;;;10.12;100.00
23446;BME280;11895;48.738;9.320;2023-04-27T04:11:07;98888.66;;;10.21;100.00
23446;BME280;11895;48.738;9.320;2023-04-27T04:13:37;98882.41;;;10.20;100.00
23446;BME280;11895;48.738;9.320;2023-04-27T04:16:07;98892.97;;;10.25;100.00
23446;BME280;11895;48.738;9.320;2023-04-27T04:18:36;98881.38;;;10.23;100.00
23446;BME280;11895;48.738;9.320;2023-04-27T04:21:05;98890.63;;;9.75;100.00
23446;BME280;11895;48.738;9.320;2023-04-27T04:23:33;98889.16;;;9.88;100.00
23446;BME280;11895;48.738;9.320;2023-04-27T04:26:02;98888.69;;;9.99;100.00
23446;BME280;11895;48.738;9.320;2023-04-27T04:28:35;98890.00;;;10.11;100.00
23446;BME280;11895;48.738;9.320;2023-04-27T04:31:03;98898.72;;;9.95;100.00
23446;BME280;11895;48.738;9.320;2023-04-27T04:33:32;98907.25;;;9.85;100.00
23446;BME280;11895;48.738;9.320;2023-04-27T04:36:04;98913.13;;;9.94;100.00
23446;BME280;11895;48.738;9.320;2023-04-27T04:38:33;98899.00;;;10.10;100.00
23446;BME280;11895;48.738;9.320;2023-04-27T04:41:01;98900.47;;;9.96;100.00
23446;BME280;11895;48.738;9.320;2023-04-27T04:43:32;98906.94;;;10.13;100.00
23446;BME280;11895;48.738;9.320;2023-04-27T04:46:03;98904.56;;;10.27;100.00
23446;BME280;11895;48.738;9.320;2023-04-27T04:48:31;98903.94;;;10.20;100.00
23446;BME280;11895;48.738;9.320;2023-04-27T04:50:58;98909.44;;;10.17;100.00
23446;BME280;11895;48.738;9.320;2023-04-27T04:53:27;98910.59;;;10.12;100.00
23446;BME280;11895;48.738;9.320;2023-04-27T04:55:55;98906.94;;;10.13;100.00
23446;BME280;11895;48.738;9.320;2023-04-27T04:58:22;98910.19;;;10.21;100.00
23446;BME280;11895;48.738;9.320;2023-04-27T05:00:50;98906.03;;;10.34;100.00
23446;BME280;11895;48.738;9.320;2023-04-27T05:03:20;98910.88;;;10.46;100.00
23446;BME280;11895;48.738;9.320;2023-04-27T05:05:48;98906.31;;;10.28;100.00
23446;BME280;11895;48.738;9.320;2023-04-27T05:08:15;98903.03;;;10.20;100.00
23446;BME280;11895;48.738;9.320;2023-04-27T05:10:52;98910.25;;;10.19;100.00
23446;BME280;11895;48.738;9.320;2023-04-27T05:13:20;98907.50;;;10.21;100.00
23446;BME280;11895;48.738;9.320;2023-04-27T05:15:48;98913.97;;;10.17;100.00
23446;BME280;11895;48.738;9.320;2023-04-27T05:18:16;98909.53;;;10.16;100.00
23446;BME280;11895;48.738;9.320;2023-04-27T05:21:03;98905.69;;;10.42;100.00
23446;BME280;11895;48.738;9.320;2023-04-27T05:23:31;98906.22;;;10.29;100.00
23446;BME280;11895;48.738;9.320;2023-04-27T05:26:00;98902.53;;;10.52;100.00
23446;BME280;11895;48.738;9.320;2023-04-27T05:28:27;98905.97;;;10.56;100.00
23446;BME280;11895;48.738;9.320;2023-04-27T05:30:55;98913.00;;;10.59;100.00
23446;BME280;11895;48.738;9.320;2023-04-27T05:33:23;98911.75;;;10.47;100.00
23446;BME280;11895;48.738;9.320;2023-04-27T05:35:50;98906.28;;;10.69;100.00
23446;BME280;11895;48.738;9.320;2023-04-27T05:38:18;98916.03;;;10.71;100.00
23446;BME280;11895;48.738;9.320;2023-04-27T05:40:46;98921.81;;;11.01;100.00
23446;BME280;11895;48.738;9.320;2023-04-27T05:43:13;98915.84;;;10.76;100.00
23446;BME280;11895;48.738;9.320;2023-04-27T05:45:41;98923.88;;;10.96;100.00
23446;BME280;11895;48.738;9.320;2023-04-27T05:48:09;98925.16;;;11.27;100.00
23446;BME280;11895;48.738;9.320;2023-04-27T05:50:36;98923.88;;;11.34;100.00
23446;BME280;11895;48.738;9.320;2023-04-27T05:53:04;98919.28;;;11.36;100.00
23446;BME280;11895;48.738;9.320;2023-04-27T05:55:35;98928.59;;;11.67;100.00
23446;BME280;11895;48.738;9.320;2023-04-27T05:58:03;98931.53;;;11.43;100.00
23446;BME280;11895;48.738;9.320;2023-04-27T06:00:35;98932.03;;;11.70;100.00
23446;BME280;11895;48.738;9.320;2023-04-27T06:03:03;98934.59;;;11.54;100.00
23446;BME280;11895;48.738;9.320;2023-04-27T06:05:31;98939.91;;;11.75;100.00
23446;BME280;11895;48.738;9.320;2023-04-27T06:08:04;98938.22;;;11.91;100.00
23446;BME280;11895;48.738;9.320;2023-04-27T06:10:32;98935.69;;;12.23;100.00
23446;BME280;11895;48.738;9.320;2023-04-27T06:12:59;98933.38;;;12.32;100.00
23446;BME280;11895;48.738;9.320;2023-04-27T06:15:27;98939.84;;;12.30;100.00
23446;BME280;11895;48.738;9.320;2023-04-27T06:17:55;98941.09;;;12.05;100.00
23446;BME280;11895;48.738;9.320;2023-04-27T06:20:23;98947.38;;;12.06;100.00
23446;BME280;11895;48.738;9.320;2023-04-27T06:22:51;98939.94;;;12.28;100.00
23446;BME280;11895;48.738;9.320;2023-04-27T06:25:18;98948.75;;;12.49;100.00
23446;BME280;11895;48.738;9.320;2023-04-27T06:27:46;98949.44;;;12.70;100.00
23446;BME280;11895;48.738;9.320;2023-04-27T06:30:14;98948.72;;;12.32;100.00
23446;BME280;11895;48.738;9.320;2023-04-27T06:32:41;98958.34;;;12.38;100.00
23446;BME280;11895;48.738;9.320;2023-04-27T06:35:09;98951.91;;;12.23;100.00
23446;BME280;11895;48.738;9.320;2023-04-27T06:37:37;98946.81;;;12.69;100.00
23446;BME280;11895;48.738;9.320;2023-04-27T06:40:05;98951.41;;;12.84;100.00
23446;BME280;11895;48.738;9.320;2023-04-27T06:42:34;98949.34;;;13.05;100.00
23446;BME280;11895;48.738;9.320;2023-04-27T06:45:02;98944.81;;;13.23;100.00
23446;BME280;11895;48.738;9.320;2023-04-27T06:47:31;98950.56;;;12.99;100.00
23446;BME280;11895;48.738;9.320;2023-04-27T06:49:59;98944.84;;;13.05;100.00
23446;BME280;11895;48.738;9.320;2023-04-27T06:52:26;98948.94;;;13.12;100.00
23446;BME280;11895;48.738;9.320;2023-04-27T06:54:54;98949.91;;;13.11;100.00
23446;BME280;11895;48.738;9.320;2023-04-27T06:57:22;98957.69;;;13.35;100.00
23446;BME280;11895;48.738;9.320;2023-04-27T06:59:50;98950.09;;;13.57;100.00
23446;BME280;11895;48.738;9.320;2023-04-27T07:02:18;98948.94;;;13.61;100.00
23446;BME280;11895;48.738;9.320;2023-04-27T07:04:45;98946.16;;;13.47;100.00
23446;BME280;11895;48.738;9.320;2023-04-27T07:07:14;98956.72;;;13.68;100.00
23446;BME280;11895;48.738;9.320;2023-04-27T07:09:41;98957.00;;;13.79;100.00
23446;BME280;11895;48.738;9.320;2023-04-27T07:12:12;98949.56;;;13.67;100.00
23446;BME280;11895;48.738;9.320;2023-04-27T07:14:39;98958.00;;;13.92;100.00
23446;BME280;11895;48.738;9.320;2023-04-27T07:17:07;98954.44;;;14.07;100.00
23446;BME280;11895;48.738;9.320;2023-04-27T07:19:36;98953.66;;;13.89;100.00
23446;BME280;11895;48.738;9.320;2023-04-27T07:22:04;98948.34;;;13.56;100.00
23446;BME280;11895;48.738;9.320;2023-04-27T07:24:31;98949.28;;;13.87;100.00
23446;BME280;11895;48.738;9.320;2023-04-27T07:26:59;98945.63;;;13.88;100.00
23446;BME280;11895;48.738;9.320;2023-04-27T07:29:28;98945.25;;;14.10;100.00
23446;BME280;11895;48.738;9.320;2023-04-27T07:31:57;98944.81;;;14.18;100.00
23446;BME280;11895;48.738;9.320;2023-04-27T07:34:25;98942.91;;;14.34;100.00
23446;BME280;11895;48.738;9.320;2023-04-27T07:36:55;98942.31;;;14.29;100.00
23446;BME280;11895;48.738;9.320;2023-04-27T07:39:23;98941.66;;;14.39;100.00
23446;BME280;11895;48.738;9.320;2023-04-27T07:41:51;98945.41;;;14.23;100.00
23446;BME280;11895;48.738;9.320;2023-04-27T07:44:19;98937.66;;;14.01;100.00
23446;BME280;11895;48.738;9.320;2023-04-27T07:46:47;98942.03;;;14.49;100.00
23446;BME280;11895;48.738;9.320;2023-04-27T07:49:16;98938.38;;;14.64;100.00
23446;BME280;11895;48.738;9.320;2023-04-27T07:51:43;98940.53;;;14.74;97.39
23446;BME280;11895;48.738;9.320;2023-04-27T07:54:11;98932.41;;;14.88;94.54
23446;BME280;11895;48.738;9.320;2023-04-27T07:56:42;98942.50;;;15.00;95.13
23446;BME280;11895;48.738;9.320;2023-04-27T07:59:10;98938.94;;;15.14;92.84
23446;BME280;11895;48.738;9.320;2023-04-27T08:01:38;98943.19;;;15.04;91.73
23446;BME280;11895;48.738;9.320;2023-04-27T08:04:06;98937.44;;;15.51;89.30
23446;BME280;11895;48.738;9.320;2023-04-27T08:06:34;98937.25;;;15.68;86.23
23446;BME280;11895;48.738;9.320;2023-04-27T08:09:03;98937.53;;;15.64;80.09
23446;BME280;11895;48.738;9.320;2023-04-27T08:11:31;98934.41;;;15.56;80.17
23446;BME280;11895;48.738;9.320;2023-04-27T08:13:59;98937.22;;;15.83;85.83
23446;BME280;11895;48.738;9.320;2023-04-27T08:16:27;98937.69;;;15.75;73.65
23446;BME280;11895;48.738;9.320;2023-04-27T08:18:55;98927.66;;;15.90;75.35
23446;BME280;11895;48.738;9.320;2023-04-27T08:21:24;98927.56;;;16.18;74.80
23446;BME280;11895;48.738;9.320;2023-04-27T08:23:54;98925.25;;;16.52;76.16
23446;BME280;11895;48.738;9.320;2023-04-27T08:26:22;98917.88;;;16.67;68.90
23446;BME280;11895;48.738;9.320;2023-04-27T08:28:52;98915.28;;;16.65;68.25
23446;BME280;11895;48.738;9.320;2023-04-27T08:31:23;98914.63;;;16.62;59.47
23446;BME280;11895;48.738;9.320;2023-04-27T08:33:51;98911.19;;;16.98;59.94
23446;BME280;11895;48.738;9.320;2023-04-27T08:36:23;98906.38;;;17.27;59.57
23446;BME280;11895;48.738;9.320;2023-04-27T08:38:51;98913.00;;;17.36;57.63
23446;BME280;11895;48.738;9.320;2023-04-27T08:41:20;98902.66;;;17.41;57.71
23446;BME280;11895;48.738;9.320;2023-04-27T08:43:50;98901.41;;;17.58;57.61
23446;BME280;11895;48.738;9.320;2023-04-27T08:46:24;98904.31;;;17.67;51.76
23446;BME280;11895;48.738;9.320;2023-04-27T08:48:53;98896.16;;;17.55;53.46
23446;BME280;11895;48.738;9.320;2023-04-27T08:51:22;98898.69;;;17.58;53.00
23446;BME280;11895;48.738;9.320;2023-04-27T08:53:54;98893.63;;;17.77;50.13
23446;BME280;11895;48.738;9.320;2023-04-27T08:56:25;98891.75;;;17.41;51.09
23446;BME280;11895;48.738;9.320;2023-04-27T08:58:55;98889.78;;;17.43;49.87
23446;BME280;11895;48.738;9.320;2023-04-27T09:01:24;98891.31;;;17.47;50.27
23446;BME280;11895;48.738;9.320;2023-04-27T09:03:58;98891.38;;;16.96;48.71
23446;BME280;11895;48.738;9.320;2023-04-27T09:06:29;98887.13;;;17.54;48.20
23446;BME280;11895;48.738;9.320;2023-04-27T09:08:58;98885.16;;;17.93;47.48
23446;BME280;11895;48.738;9.320;2023-04-27T09:11:37;98887.81;;;17.45;44.98
23446;BME280;11895;48.738;9.320;2023-04-27T09:14:17;98888.31;;;17.13;45.81
23446;BME280;11895;48.738;9.320;2023-04-27T09:16:56;98888.94;;;17.79;47.04
23446;BME280;11895;48.738;9.320;2023-04-27T09:19:26;98887.19;;;18.02;44.84
23446;BME280;11895;48.738;9.320;2023-04-27T09:22:07;98889.44;;;18.32;42.59
23446;BME280;11895;48.738;9.320;2023-04-27T09:24:35;98888.97;;;18.38;43.73
23446;BME280;11895;48.738;9.320;2023-04-27T09:27:06;98888.13;;;18.38;43.21
23446;BME280;11895;48.738;9.320;2023-04-27T09:29:37;98895.84;;;18.55;41.38
23446;BME280;11895;48.738;9.320;2023-04-27T09:34:44;98889.84;;;17.17;45.31
23446;BME280;11895;48.738;9.320;2023-04-27T09:37:12;98891.38;;;17.58;45.11
23446;BME280;11895;48.738;9.320;2023-04-27T09:39:41;98898.78;;;17.93;42.77
23446;BME280;11895;48.738;9.320;2023-04-27T09:42:11;98890.34;;;18.33;42.34
23446;BME280;11895;48.738;9.320;2023-04-27T09:44:38;98892.16;;;18.32;41.94
23446;BME280;11895;48.738;9.320;2023-04-27T09:47:07;98884.13;;;18.42;41.81
23446;BME280;11895;48.738;9.320;2023-04-27T09:49:36;98879.84;;;18.86;42.76
23446;BME280;11895;48.738;9.320;2023-04-27T09:52:04;98880.94;;;19.28;40.83
23446;BME280;11895;48.738;9.320;2023-04-27T09:54:33;98887.56;;;19.25;38.67
23446;BME280;11895;48.738;9.320;2023-04-27T09:57:16;98877.22;;;19.40;40.60
23446;BME280;11895;48.738;9.320;2023-04-27T10:08:56;98866.50;;;20.14;39.26
23446;BME280;11895;48.738;9.320;2023-04-27T10:11:39;98870.72;;;20.18;37.39
23446;BME280;11895;48.738;9.320;2023-04-27T10:14:09;98868.06;;;19.96;36.86
23446;BME280;11895;48.738;9.320;2023-04-27T10:16:54;98874.09;;;19.79;38.07
23446;BME280;11895;48.738;9.320;2023-04-27T10:19:23;98881.53;;;19.76;36.82
23446;BME280;11895;48.738;9.320;2023-04-27T10:24:41;98873.75;;;19.61;38.92
23446;BME280;11895;48.738;9.320;2023-04-27T10:27:14;98866.56;;;20.03;39.08
23446;BME280;11895;48.738;9.320;2023-04-27T10:29:47;98871.66;;;20.08;36.95
23446;BME280;11895;48.738;9.320;2023-04-27T10:32:22;98870.34;;;20.55;38.98
23446;BME280;11895;48.738;9.320;2023-04-27T10:35:11;98865.53;;;20.89;38.07
23446;BME280;11895;48.738;9.320;2023-04-27T10:37:40;98863.19;;;20.85;39.06
23446;BME280;11895;48.738;9.320;2023-04-27T10:40:10;98864.72;;;21.29;35.79
23446;BME280;11895;48.738;9.320;2023-04-27T10:42:47;98862.75;;;21.91;40.52
23446;BME280;11895;48.738;9.320;2023-04-27T10:45:26;98850.75;;;21.82;38.77
23446;BME280;11895;48.738;9.320;2023-04-27T10:48:01;98847.59;;;21.37;35.42
23446;BME280;11895;48.738;9.320;2023-04-27T10:50:29;98854.22;;;21.84;37.04
23446;BME280;11895;48.738;9.320;2023-04-27T10:53:04;98850.22;;;22.07;36.65
23446;BME280;11895;48.738;9.320;2023-04-27T10:55:33;98850.84;;;22.11;36.88
23446;BME280;11895;48.738;9.320;2023-04-27T10:58:02;98843.56;;;22.00;34.61
23446;BME280;11895;48.738;9.320;2023-04-27T11:00:39;98845.56;;;21.98;39.31
23446;BME280;11895;48.738;9.320;2023-04-27T11:03:18;98850.63;;;22.03;35.39
23446;BME280;11895;48.738;9.320;2023-04-27T11:06:00;98850.78;;;22.79;35.21
23446;BME280;11895;48.738;9.320;2023-04-27T11:08:30;98851.22;;;23.31;35.24
23446;BME280;11895;48.738;9.320;2023-04-27T11:11:00;98843.88;;;22.46;32.83
23446;BME280;11895;48.738;9.320;2023-04-27T11:13:28;98850.19;;;22.95;33.90
23446;BME280;11895;48.738;9.320;2023-04-27T11:15:57;98847.00;;;22.90;32.97
23446;BME280;11895;48.738;9.320;2023-04-27T11:18:29;98842.13;;;22.06;34.80
23446;BME280;11895;48.738;9.320;2023-04-27T11:21:13;98838.41;;;22.17;33.88
23446;BME280;11895;48.738;9.320;2023-04-27T11:23:42;98837.53;;;22.16;34.27
23446;BME280;11895;48.738;9.320;2023-04-27T11:26:17;98838.69;;;22.23;34.92
23446;BME280;11895;48.738;9.320;2023-04-27T11:28:57;98840.31;;;23.12;34.33
23446;BME280;11895;48.738;9.320;2023-04-27T11:31:28;98835.19;;;23.81;33.41
23446;BME280;11895;48.738;9.320;2023-04-27T11:34:08;98833.25;;;24.63;32.93
23446;BME280;11895;48.738;9.320;2023-04-27T11:36:42;98825.63;;;23.85;32.65
23446;BME280;11895;48.738;9.320;2023-04-27T11:39:16;98827.44;;;24.30;32.89
23446;BME280;11895;48.738;9.320;2023-04-27T11:41:48;98827.81;;;24.35;31.96
23446;BME280;11895;48.738;9.320;2023-04-27T11:44:15;98838.94;;;23.25;32.74
23446;BME280;11895;48.738;9.320;2023-04-27T11:46:44;98829.38;;;24.02;31.01
23446;BME280;11895;48.738;9.320;2023-04-27T11:49:14;98832.69;;;24.59;31.77
23446;BME280;11895;48.738;9.320;2023-04-27T11:51:42;98834.56;;;24.77;31.78
23446;BME280;11895;48.738;9.320;2023-04-27T11:54:11;98838.63;;;24.91;32.31
23446;BME280;11895;48.738;9.320;2023-04-27T11:56:41;98839.50;;;25.94;31.76
23446;BME280;11895;48.738;9.320;2023-04-27T11:59:21;98833.53;;;26.39;29.11
23446;BME280;11895;48.738;9.320;2023-04-27T12:01:58;98844.81;;;27.50;28.29
23446;BME280;11895;48.738;9.320;2023-04-27T12:04:28;98838.19;;;28.07;26.50
23446;BME280;11895;48.738;9.320;2023-04-27T12:06:57;98833.94;;;27.57;25.96
23446;BME280;11895;48.738;9.320;2023-04-27T12:09:27;98826.72;;;28.64;26.84
23446;BME280;11895;48.738;9.320;2023-04-27T12:11:55;98818.81;;;28.53;25.31
23446;BME280;11895;48.738;9.320;2023-04-27T12:14:23;98822.28;;;28.92;27.25
23446;BME280;11895;48.738;9.320;2023-04-27T12:16:51;98819.00;;;30.07;25.73
23446;BME280;11895;48.738;9.320;2023-04-27T12:19:19;98823.09;;;30.69;23.65
23446;BME280;11895;48.738;9.320;2023-04-27T12:21:46;98812.13;;;31.10;22.52
23446;BME280;11895;48.738;9.320;2023-04-27T12:24:15;98815.06;;;32.19;23.25
23446;BME280;11895;48.738;9.320;2023-04-27T12:26:43;98810.25;;;32.68;21.95
23446;BME280;11895;48.738;9.320;2023-04-27T12:29:12;98807.44;;;33.61;21.86
23446;BME280;11895;48.738;9.320;2023-04-27T12:31:40;98810.38;;;34.24;20.58
23446;BME280;11895;48.738;9.320;2023-04-27T12:34:08;98805.84;;;34.30;19.06
23446;BME280;11895;48.738;9.320;2023-04-27T12:37:06;98814.59;;;33.88;19.61
23446;BME280;11895;48.738;9.320;2023-04-27T12:39:34;98805.28;;;33.36;20.29
23446;BME280;11895;48.738;9.320;2023-04-27T12:42:02;98806.00;;;32.98;19.86
23446;BME280;11895;48.738;9.320;2023-04-27T12:44:30;98812.84;;;33.94;20.28
23446;BME280;11895;48.738;9.320;2023-04-27T12:46:59;98809.63;;;34.73;19.47
23446;BME280;11895;48.738;9.320;2023-04-27T12:49:27;98813.16;;;35.37;18.90
23446;BME280;11895;48.738;9.320;2023-04-27T12:51:55;98805.22;;;33.76;19.36
23446;BME280;11895;48.738;9.320;2023-04-27T12:54:24;98800.56;;;33.50;19.40
23446;BME280;11895;48.738;9.320;2023-04-27T12:56:51;98792.00;;;33.25;19.90
23446;BME280;11895;48.738;9.320;2023-04-27T12:59:19;98797.97;;;32.36;20.14
23446;BME280;11895;48.738;9.320;2023-04-27T13:01:47;98793.91;;;31.77;20.42
23446;BME280;11895;48.738;9.320;2023-04-27T13:04:19;98782.50;;;30.46;21.50
23446;BME280;11895;48.738;9.320;2023-04-27T13:06:49;98783.00;;;30.78;21.92
23446;BME280;11895;48.738;9.320;2023-04-27T13:09:16;98785.13;;;30.76;21.80
23446;BME280;11895;48.738;9.320;2023-04-27T13:11:45;98791.38;;;29.99;21.82
23446;BME280;11895;48.738;9.320;2023-04-27T13:14:12;98780.41;;;29.76;22.60
23446;BME280;11895;48.738;9.320;2023-04-27T13:16:41;98775.91;;;30.11;22.39
23446;BME280;11895;48.738;9.320;2023-04-27T13:19:09;98776.72;;;30.48;22.18
23446;BME280;11895;48.738;9.320;2023-04-27T13:21:37;98777.44;;;31.06;21.21